sensor_id;sensor_type;location;lat;lon;timestamp;pressure;altitude;pressure_sealevel;temperature;humidity
59154;BME280;44935;48.944;9.418;2024-03-25T00:00:48;97921.81;;;6.29;50.95
59154;BME280;44935;48.944;9.418;2024-03-25T00:03:15;97921.45;;;6.66;50.00
59154;BME280;44935;48.944;9.418;2024-03-25T00:05:42;97922.81;;;7.24;48.84
59154;BME280;44935;48.944;9.418;2024-03-25T00:08:10;97926.40;;;7.43;48.45
59154;BME280;44935;48.944;9.418;2024-03-25T00:10:37;97920.88;;;7.73;47.56
59154;BME280;44935;48.944;9.418;2024-03-25T00:13:04;97925.46;;;7.58;47.93
59154;BME280;44935;48.944;9.418;2024-03-25T00:15:30;97928.10;;;7.58;47.71
59154;BME280;44935;48.944;9.418;2024-03-25T00:17:57;97921.05;;;7.77;47.10
59154;BME280;44935;48.944;9.418;2024-03-25T00:20:24;97926.15;;;7.95;47.12
59154;BME280;44935;48.944;9.418;2024-03-25T00:22:51;97922.21;;;7.85;47.19
59154;BME280;44935;48.944;9.418;2024-03-25T00:25:18;97918.91;;;7.72;47.22
59154;BME280;44935;48.944;9.418;2024-03-25T00:27:45;97916.49;;;7.65;47.04
59154;BME280;44935;48.944;9.418;2024-03-25T00:30:12;97917.95;;;7.99;46.30
59154;BME280;44935;48.944;9.418;2024-03-25T00:32:39;97918.58;;;8.07;46.56
59154;BME280;44935;48.944;9.418;2024-03-25T00:35:07;97914.53;;;8.12;46.41
59154;BME280;44935;48.944;9.418;2024-03-25T00:37:34;97917.83;;;8.28;45.59
59154;BME280;44935;48.944;9.418;2024-03-25T00:40:01;97912.53;;;8.20;45.54
59154;BME280;44935;48.944;9.418;2024-03-25T00:42:28;97909.64;;;8.39;45.30
59154;BME280;44935;48.944;9.418;2024-03-25T00:44:55;97907.74;;;8.62;45.16
59154;BME280;44935;48.944;9.418;2024-03-25T00:47:22;97908.79;;;8.56;45.36
59154;BME280;44935;48.944;9.418;2024-03-25T00:49:48;97910.53;;;8.50;45.55
59154;BME280;44935;48.944;9.418;2024-03-25T00:52:15;97910.88;;;7.94;46.43
59154;BME280;44935;48.944;9.418;2024-03-25T00:54:42;97911.31;;;8.12;45.99
59154;BME280;44935;48.944;9.418;2024-03-25T00:57:09;97910.59;;;7.88;45.96
59154;BME280;44935;48.944;9.418;2024-03-25T00:59:36;97914.72;;;7.92;46.52
59154;BME280;44935;48.944;9.418;2024-03-25T01:02:03;97912.80;;;7.69;47.45
59154;BME280;44935;48.944;9.418;2024-03-25T01:04:30;97910.08;;;7.61;47.30
59154;BME280;44935;48.944;9.418;2024-03-25T01:06:56;97912.57;;;7.82;47.16
59154;BME280;44935;48.944;9.418;2024-03-25T01:09:23;97915.68;;;7.03;48.06
59154;BME280;44935;48.944;9.418;2024-03-25T01:11:50;97914.24;;;7.04;48.82
59154;BME280;44935;48.944;9.418;2024-03-25T01:14:17;97911.12;;;7.46;47.93
59154;BME280;44935;48.944;9.418;2024-03-25T01:16:44;97908.81;;;7.40;48.36
59154;BME280;44935;48.944;9.418;2024-03-25T01:19:11;97900.14;;;7.58;48.00
59154;BME280;44935;48.944;9.418;2024-03-25T01:21:38;97897.68;;;7.90;47.41
59154;BME280;44935;48.944;9.418;2024-03-25T01:24:05;97904.74;;;7.59;47.52
59154;BME280;44935;48.944;9.418;2024-03-25T01:26:31;97906.52;;;7.19;48.21
59154;BME280;44935;48.944;9.418;2024-03-25T01:28:58;97906.75;;;7.36;48.06
59154;BME280;44935;48.944;9.418;2024-03-25T01:31:25;97902.03;;;7.49;47.64
59154;BME280;44935;48.944;9.418;2024-03-25T01:33:52;97907.10;;;7.40;47.10
59154;BME280;44935;48.944;9.418;2024-03-25T01:36:19;97908.21;;;7.79;46.99
59154;BME280;44935;48.944;9.418;2024-03-25T01:38:46;97904.56;;;8.03;46.20
59154;BME280;44935;48.944;9.418;2024-03-25T01:41:13;97906.88;;;8.57;45.67
59154;BME280;44935;48.944;9.418;2024-03-25T01:43:41;97906.95;;;8.70;44.51
59154;BME280;44935;48.944;9.418;2024-03-25T01:46:07;97903.70;;;8.35;44.86
59154;BME280;44935;48.944;9.418;2024-03-25T01:48:36;97903.27;;;8.47;45.16
59154;BME280;44935;48.944;9.418;2024-03-25T01:51:03;97907.78;;;8.55;44.89
59154;BME280;44935;48.944;9.418;2024-03-25T01:53:31;97908.73;;;8.84;44.30
59154;BME280;44935;48.944;9.418;2024-03-25T01:55:59;97906.93;;;8.63;44.35
59154;BME280;44935;48.944;9.418;2024-03-25T01:58:26;97910.51;;;8.00;45.24
59154;BME280;44935;48.944;9.418;2024-03-25T02:00:54;97909.85;;;7.57;45.96
59154;BME280;44935;48.944;9.418;2024-03-25T02:03:22;97911.64;;;8.17;45.54
59154;BME280;44935;48.944;9.418;2024-03-25T02:05:54;97906.61;;;7.66;45.88
59154;BME280;44935;48.944;9.418;2024-03-25T02:08:22;97909.24;;;7.77;46.59
59154;BME280;44935;48.944;9.418;2024-03-25T02:10:51;97910.43;;;7.12;47.40
59154;BME280;44935;48.944;9.418;2024-03-25T02:13:18;97905.29;;;7.66;47.07
59154;BME280;44935;48.944;9.418;2024-03-25T02:15:45;97903.64;;;7.63;46.40
59154;BME280;44935;48.944;9.418;2024-03-25T02:18:11;97901.03;;;7.75;46.16
59154;BME280;44935;48.944;9.418;2024-03-25T02:20:38;97909.57;;;7.46;46.74
59154;BME280;44935;48.944;9.418;2024-03-25T02:23:05;97907.57;;;7.09;46.96
59154;BME280;44935;48.944;9.418;2024-03-25T02:25:33;97904.02;;;7.75;46.21
59154;BME280;44935;48.944;9.418;2024-03-25T02:28:00;97906.53;;;7.83;46.01
59154;BME280;44935;48.944;9.418;2024-03-25T02:30:27;97906.87;;;7.29;46.79
59154;BME280;44935;48.944;9.418;2024-03-25T02:32:54;97900.79;;;7.73;46.17
59154;BME280;44935;48.944;9.418;2024-03-25T02:35:21;97900.90;;;7.99;45.63
59154;BME280;44935;48.944;9.418;2024-03-25T02:37:50;97901.11;;;7.69;45.75
59154;BME280;44935;48.944;9.418;2024-03-25T02:40:19;97901.07;;;7.97;45.61
59154;BME280;44935;48.944;9.418;2024-03-25T02:42:47;97901.54;;;8.13;45.58
59154;BME280;44935;48.944;9.418;2024-03-25T02:45:14;97903.73;;;7.57;46.52
59154;BME280;44935;48.944;9.418;2024-03-25T02:47:41;97907.78;;;7.41;46.35
59154;BME280;44935;48.944;9.418;2024-03-25T02:50:09;97913.87;;;7.43;47.35
59154;BME280;44935;48.944;9.418;2024-03-25T02:52:36;97917.47;;;6.86;48.11
59154;BME280;44935;48.944;9.418;2024-03-25T02:55:04;97913.91;;;7.25;47.72
59154;BME280;44935;48.944;9.418;2024-03-25T02:57:31;97913.57;;;7.15;47.55
59154;BME280;44935;48.944;9.418;2024-03-25T02:59:58;97911.83;;;7.32;47.39
59154;BME280;44935;48.944;9.418;2024-03-25T03:02:25;97912.73;;;7.21;47.06
59154;BME280;44935;48.944;9.418;2024-03-25T03:04:51;97910.10;;;7.79;46.77
59154;BME280;44935;48.944;9.418;2024-03-25T03:07:18;97908.44;;;8.48;45.83
59154;BME280;44935;48.944;9.418;2024-03-25T03:09:46;97909.62;;;7.91;45.40
59154;BME280;44935;48.944;9.418;2024-03-25T03:12:13;97905.96;;;7.76;45.56
59154;BME280;44935;48.944;9.418;2024-03-25T03:14:40;97904.75;;;7.90;45.44
59154;BME280;44935;48.944;9.418;2024-03-25T03:17:07;97907.56;;;7.69;45.40
59154;BME280;44935;48.944;9.418;2024-03-25T03:19:34;97911.09;;;7.79;45.57
59154;BME280;44935;48.944;9.418;2024-03-25T03:22:00;97907.78;;;7.90;45.40
59154;BME280;44935;48.944;9.418;2024-03-25T03:24:27;97906.15;;;7.93;45.51
59154;BME280;44935;48.944;9.418;2024-03-25T03:26:54;97901.17;;;8.35;45.21
59154;BME280;44935;48.944;9.418;2024-03-25T03:29:21;97901.38;;;8.47;44.50
59154;BME280;44935;48.944;9.418;2024-03-25T03:31:49;97898.75;;;8.70;44.72
59154;BME280;44935;48.944;9.418;2024-03-25T03:34:15;97896.53;;;8.81;44.36
59154;BME280;44935;48.944;9.418;2024-03-25T03:36:42;97894.56;;;8.69;44.69
59154;BME280;44935;48.944;9.418;2024-03-25T03:39:10;97897.87;;;8.29;45.44
59154;BME280;44935;48.944;9.418;2024-03-25T03:41:37;97895.08;;;8.10;45.70
59154;BME280;44935;48.944;9.418;2024-03-25T03:44:04;97893.92;;;8.18;46.47
59154;BME280;44935;48.944;9.418;2024-03-25T03:46:30;97891.29;;;7.90;46.10
59154;BME280;44935;48.944;9.418;2024-03-25T03:48:57;97893.85;;;7.87;46.13
59154;BME280;44935;48.944;9.418;2024-03-25T03:51:24;97889.99;;;7.99;45.47
59154;BME280;44935;48.944;9.418;2024-03-25T03:53:51;97889.04;;;7.73;45.64
59154;BME280;44935;48.944;9.418;2024-03-25T03:56:18;97888.73;;;8.19;45.42
59154;BME280;44935;48.944;9.418;2024-03-25T03:58:45;97893.41;;;8.17;44.98
59154;BME280;44935;48.944;9.418;2024-03-25T04:01:16;97892.79;;;8.65;45.17
59154;BME280;44935;48.944;9.418;2024-03-25T04:03:43;97897.70;;;8.33;44.47
59154;BME280;44935;48.944;9.418;2024-03-25T04:06:11;97900.65;;;8.23;44.99
59154;BME280;44935;48.944;9.418;2024-03-25T04:08:38;97898.73;;;8.04;45.17
59154;BME280;44935;48.944;9.418;2024-03-25T04:11:05;97901.79;;;8.25;45.22
59154;BME280;44935;48.944;9.418;2024-03-25T04:13:33;97903.42;;;8.25;44.95
59154;BME280;44935;48.944;9.418;2024-03-25T04:16:01;97906.01;;;8.41;44.88
59154;BME280;44935;48.944;9.418;2024-03-25T04:18:28;97907.53;;;8.59;44.75
59154;BME280;44935;48.944;9.418;2024-03-25T04:20:55;97908.25;;;8.37;44.67
59154;BME280;44935;48.944;9.418;2024-03-25T04:23:22;97909.05;;;8.79;44.42
59154;BME280;44935;48.944;9.418;2024-03-25T04:25:49;97904.59;;;8.76;44.58
59154;BME280;44935;48.944;9.418;2024-03-25T04:28:16;97904.21;;;8.69;44.21
59154;BME280;44935;48.944;9.418;2024-03-25T04:30:43;97902.42;;;9.18;43.45
59154;BME280;44935;48.944;9.418;2024-03-25T04:33:10;97905.07;;;9.27;42.90
59154;BME280;44935;48.944;9.418;2024-03-25T04:35:37;97906.19;;;9.37;42.75
59154;BME280;44935;48.944;9.418;2024-03-25T04:38:04;97907.83;;;9.09;43.48
59154;BME280;44935;48.944;9.418;2024-03-25T04:40:30;97905.95;;;8.62;44.82
59154;BME280;44935;48.944;9.418;2024-03-25T04:42:57;97906.42;;;8.09;45.97
59154;BME280;44935;48.944;9.418;2024-03-25T04:45:24;97898.87;;;7.79;46.38
59154;BME280;44935;48.944;9.418;2024-03-25T04:47:51;97900.42;;;8.17;45.36
59154;BME280;44935;48.944;9.418;2024-03-25T04:50:18;97899.83;;;8.11;45.86
59154;BME280;44935;48.944;9.418;2024-03-25T04:52:45;97901.58;;;8.16;45.55
59154;BME280;44935;48.944;9.418;2024-03-25T04:55:12;97901.66;;;8.26;45.32
59154;BME280;44935;48.944;9.418;2024-03-25T04:57:38;97905.23;;;8.27;45.30
59154;BME280;44935;48.944;9.418;2024-03-25T05:00:06;97905.05;;;8.21;45.76
59154;BME280;44935;48.944;9.418;2024-03-25T05:02:34;97911.40;;;8.43;45.15
59154;BME280;44935;48.944;9.418;2024-03-25T05:05:02;97916.26;;;8.19;45.25
59154;BME280;44935;48.944;9.418;2024-03-25T05:07:29;97916.46;;;8.42;45.20
59154;BME280;44935;48.944;9.418;2024-03-25T05:09:55;97919.09;;;7.85;44.77
59154;BME280;44935;48.944;9.418;2024-03-25T05:12:22;97918.99;;;8.00;44.78
59154;BME280;44935;48.944;9.418;2024-03-25T05:14:50;97920.77;;;7.94;45.44
59154;BME280;44935;48.944;9.418;2024-03-25T05:17:17;97918.56;;;7.62;46.18
59154;BME280;44935;48.944;9.418;2024-03-25T05:19:44;97916.14;;;7.64;46.13
59154;BME280;44935;48.944;9.418;2024-03-25T05:22:10;97918.02;;;7.48;46.29
59154;BME280;44935;48.944;9.418;2024-03-25T05:24:37;97921.82;;;7.40;47.07
59154;BME280;44935;48.944;9.418;2024-03-25T05:27:05;97922.23;;;7.61;47.05
59154;BME280;44935;48.944;9.418;2024-03-25T05:29:32;97923.70;;;7.34;47.20
59154;BME280;44935;48.944;9.418;2024-03-25T05:32:00;97929.51;;;7.72;46.89
59154;BME280;44935;48.944;9.418;2024-03-25T05:34:28;97927.10;;;7.75;47.01
59154;BME280;44935;48.944;9.418;2024-03-25T05:36:55;97930.45;;;7.90;47.03
59154;BME280;44935;48.944;9.418;2024-03-25T05:39:22;97932.41;;;7.20;47.44
59154;BME280;44935;48.944;9.418;2024-03-25T05:41:49;97935.09;;;7.27;48.26
59154;BME280;44935;48.944;9.418;2024-03-25T05:44:16;97937.31;;;6.97;48.59
59154;BME280;44935;48.944;9.418;2024-03-25T05:46:43;97939.10;;;7.45;47.48
59154;BME280;44935;48.944;9.418;2024-03-25T05:49:10;97940.39;;;7.08;47.50
59154;BME280;44935;48.944;9.418;2024-03-25T05:51:37;97946.06;;;7.23;47.93
59154;BME280;44935;48.944;9.418;2024-03-25T05:54:04;97940.86;;;7.64;46.70
59154;BME280;44935;48.944;9.418;2024-03-25T05:56:30;97940.08;;;7.72;46.85
59154;BME280;44935;48.944;9.418;2024-03-25T05:58:57;97945.75;;;7.15;48.12
59154;BME280;44935;48.944;9.418;2024-03-25T06:01:24;97942.44;;;7.43;47.90
59154;BME280;44935;48.944;9.418;2024-03-25T06:03:51;97943.10;;;7.50;47.84
59154;BME280;44935;48.944;9.418;2024-03-25T06:06:18;97940.67;;;7.63;47.56
59154;BME280;44935;48.944;9.418;2024-03-25T06:08:45;97935.01;;;7.93;47.05
59154;BME280;44935;48.944;9.418;2024-03-25T06:11:13;97941.00;;;7.53;47.16
59154;BME280;44935;48.944;9.418;2024-03-25T06:13:39;97943.43;;;7.81;47.54
59154;BME280;44935;48.944;9.418;2024-03-25T06:16:06;97945.85;;;7.30;48.07
59154;BME280;44935;48.944;9.418;2024-03-25T06:18:33;97944.12;;;7.80;47.62
59154;BME280;44935;48.944;9.418;2024-03-25T06:21:01;97946.47;;;7.32;47.66
59154;BME280;44935;48.944;9.418;2024-03-25T06:23:28;97949.98;;;7.54;47.86
59154;BME280;44935;48.944;9.418;2024-03-25T06:25:56;97949.35;;;7.50;48.81
59154;BME280;44935;48.944;9.418;2024-03-25T06:28:23;97951.51;;;6.96;47.90
59154;BME280;44935;48.944;9.418;2024-03-25T06:30:51;97946.47;;;7.29;48.20
59154;BME280;44935;48.944;9.418;2024-03-25T06:33:18;97943.86;;;7.37;47.61
59154;BME280;44935;48.944;9.418;2024-03-25T06:35:45;97946.86;;;7.21;47.92
59154;BME280;44935;48.944;9.418;2024-03-25T06:38:11;97943.63;;;7.09;47.55
59154;BME280;44935;48.944;9.418;2024-03-25T06:40:38;97941.32;;;7.55;47.02
59154;BME280;44935;48.944;9.418;2024-03-25T06:43:05;97934.80;;;7.91;46.43
59154;BME280;44935;48.944;9.418;2024-03-25T06:45:32;97934.18;;;7.89;45.91
59154;BME280;44935;48.944;9.418;2024-03-25T06:47:59;97932.35;;;8.17;45.63
59154;BME280;44935;48.944;9.418;2024-03-25T06:50:26;97938.14;;;8.44;44.85
59154;BME280;44935;48.944;9.418;2024-03-25T06:52:53;97942.01;;;8.50;44.61
59154;BME280;44935;48.944;9.418;2024-03-25T06:55:20;97940.67;;;8.21;44.66
59154;BME280;44935;48.944;9.418;2024-03-25T06:57:46;97944.11;;;8.32;45.32
59154;BME280;44935;48.944;9.418;2024-03-25T07:00:14;97945.05;;;8.37;45.51
59154;BME280;44935;48.944;9.418;2024-03-25T07:02:41;97943.75;;;8.18;45.23
59154;BME280;44935;48.944;9.418;2024-03-25T07:05:08;97944.60;;;7.81;45.51
59154;BME280;44935;48.944;9.418;2024-03-25T07:07:35;97951.77;;;7.14;46.27
59154;BME280;44935;48.944;9.418;2024-03-25T07:10:02;97955.74;;;8.02;46.59
59154;BME280;44935;48.944;9.418;2024-03-25T07:12:29;97955.98;;;7.16;47.80
59154;BME280;44935;48.944;9.418;2024-03-25T07:14:56;97955.40;;;7.76;47.28
59154;BME280;44935;48.944;9.418;2024-03-25T07:17:22;97958.90;;;6.86;48.19
59154;BME280;44935;48.944;9.418;2024-03-25T07:19:49;97962.92;;;7.22;48.03
59154;BME280;44935;48.944;9.418;2024-03-25T07:22:16;97964.91;;;6.98;47.97
59154;BME280;44935;48.944;9.418;2024-03-25T07:24:43;97966.40;;;7.03;48.91
59154;BME280;44935;48.944;9.418;2024-03-25T07:27:11;97967.64;;;6.98;48.36
59154;BME280;44935;48.944;9.418;2024-03-25T07:29:37;97965.94;;;7.00;48.00
59154;BME280;44935;48.944;9.418;2024-03-25T07:32:05;97965.90;;;7.82;47.07
59154;BME280;44935;48.944;9.418;2024-03-25T07:34:32;97966.38;;;8.13;45.79
59154;BME280;44935;48.944;9.418;2024-03-25T07:36:59;97963.95;;;8.12;45.80
59154;BME280;44935;48.944;9.418;2024-03-25T07:39:26;97961.21;;;7.64;47.23
59154;BME280;44935;48.944;9.418;2024-03-25T07:41:53;97957.15;;;7.83;46.55
59154;BME280;44935;48.944;9.418;2024-03-25T07:44:20;97955.20;;;8.16;44.96
59154;BME280;44935;48.944;9.418;2024-03-25T07:46:46;97949.95;;;7.72;46.67
59154;BME280;44935;48.944;9.418;2024-03-25T07:49:13;97946.82;;;7.91;46.14
59154;BME280;44935;48.944;9.418;2024-03-25T07:51:40;97949.82;;;7.63;45.36
59154;BME280;44935;48.944;9.418;2024-03-25T07:54:07;97943.81;;;8.32;45.66
59154;BME280;44935;48.944;9.418;2024-03-25T07:56:34;97942.14;;;7.78;45.78
59154;BME280;44935;48.944;9.418;2024-03-25T07:59:01;97946.50;;;9.10;43.56
59154;BME280;44935;48.944;9.418;2024-03-25T08:01:28;97945.18;;;9.29;43.84
59154;BME280;44935;48.944;9.418;2024-03-25T08:03:55;97946.94;;;9.31;42.88
59154;BME280;44935;48.944;9.418;2024-03-25T08:06:21;97948.21;;;8.09;43.59
59154;BME280;44935;48.944;9.418;2024-03-25T08:08:48;97950.62;;;7.79;45.30
59154;BME280;44935;48.944;9.418;2024-03-25T08:11:15;97952.96;;;7.80;44.48
59154;BME280;44935;48.944;9.418;2024-03-25T08:13:42;97955.85;;;8.82;43.09
59154;BME280;44935;48.944;9.418;2024-03-25T08:16:09;97957.17;;;8.33;43.86
59154;BME280;44935;48.944;9.418;2024-03-25T08:18:36;97961.64;;;9.39;42.91
59154;BME280;44935;48.944;9.418;2024-03-25T08:21:03;97959.45;;;10.13;40.57
59154;BME280;44935;48.944;9.418;2024-03-25T08:23:30;97957.26;;;9.22;41.99
59154;BME280;44935;48.944;9.418;2024-03-25T08:25:57;97957.88;;;8.97;40.62
59154;BME280;44935;48.944;9.418;2024-03-25T08:28:24;97951.75;;;8.80;40.13
59154;BME280;44935;48.944;9.418;2024-03-25T08:30:51;97950.35;;;9.57;40.38
59154;BME280;44935;48.944;9.418;2024-03-25T08:33:18;97946.21;;;9.32;41.50
59154;BME280;44935;48.944;9.418;2024-03-25T08:35:45;97940.97;;;9.35;39.81
59154;BME280;44935;48.944;9.418;2024-03-25T08:38:12;97939.72;;;9.05;40.38
59154;BME280;44935;48.944;9.418;2024-03-25T08:40:39;97932.05;;;7.87;42.67
59154;BME280;44935;48.944;9.418;2024-03-25T08:43:06;97936.73;;;8.55;41.93
59154;BME280;44935;48.944;9.418;2024-03-25T08:45:33;97937.60;;;9.42;40.96
59154;BME280;44935;48.944;9.418;2024-03-25T08:47:59;97935.95;;;8.84;40.59
59154;BME280;44935;48.944;9.418;2024-03-25T08:50:26;97930.75;;;9.78;40.39
59154;BME280;44935;48.944;9.418;2024-03-25T08:52:53;97928.02;;;9.38;38.55
59154;BME280;44935;48.944;9.418;2024-03-25T08:55:20;97924.87;;;10.26;38.62
59154;BME280;44935;48.944;9.418;2024-03-25T08:57:47;97927.69;;;9.76;37.94
59154;BME280;44935;48.944;9.418;2024-03-25T09:00:15;97925.40;;;10.19;38.39
59154;BME280;44935;48.944;9.418;2024-03-25T09:02:41;97929.23;;;9.56;37.95
59154;BME280;44935;48.944;9.418;2024-03-25T09:05:09;97924.05;;;9.66;37.77
59154;BME280;44935;48.944;9.418;2024-03-25T09:07:36;97915.91;;;10.00;37.11
59154;BME280;44935;48.944;9.418;2024-03-25T09:10:03;97914.09;;;9.93;36.81
59154;BME280;44935;48.944;9.418;2024-03-25T09:12:30;97913.46;;;9.15;37.09
59154;BME280;44935;48.944;9.418;2024-03-25T09:14:57;97909.69;;;8.69;38.97
59154;BME280;44935;48.944;9.418;2024-03-25T09:17:24;97906.60;;;9.73;37.48
59154;BME280;44935;48.944;9.418;2024-03-25T09:19:51;97906.14;;;9.87;37.69
59154;BME280;44935;48.944;9.418;2024-03-25T09:22:18;97904.19;;;7.60;40.92
59154;BME280;44935;48.944;9.418;2024-03-25T09:24:45;97903.12;;;9.04;38.78
59154;BME280;44935;48.944;9.418;2024-03-25T09:27:12;97904.65;;;9.41;36.88
59154;BME280;44935;48.944;9.418;2024-03-25T09:29:39;97900.76;;;9.10;37.01
59154;BME280;44935;48.944;9.418;2024-03-25T09:32:06;97897.93;;;9.76;35.84
59154;BME280;44935;48.944;9.418;2024-03-25T09:34:33;97894.78;;;10.05;35.79
59154;BME280;44935;48.944;9.418;2024-03-25T09:37:00;97895.28;;;10.62;35.57
59154;BME280;44935;48.944;9.418;2024-03-25T09:39:27;97891.12;;;11.04;35.23
59154;BME280;44935;48.944;9.418;2024-03-25T09:41:55;97886.26;;;10.38;35.01
59154;BME280;44935;48.944;9.418;2024-03-25T09:44:24;97876.04;;;10.33;35.77
59154;BME280;44935;48.944;9.418;2024-03-25T09:46:52;97872.83;;;9.78;35.80
59154;BME280;44935;48.944;9.418;2024-03-25T09:49:20;97868.69;;;10.09;35.62
59154;BME280;44935;48.944;9.418;2024-03-25T09:51:48;97867.78;;;11.15;37.23
59154;BME280;44935;48.944;9.418;2024-03-25T09:54:15;97864.11;;;10.73;34.92
59154;BME280;44935;48.944;9.418;2024-03-25T09:56:43;97859.44;;;10.54;33.28
59154;BME280;44935;48.944;9.418;2024-03-25T09:59:10;97853.90;;;10.83;33.25
59154;BME280;44935;48.944;9.418;2024-03-25T10:01:38;97850.70;;;10.24;34.79
59154;BME280;44935;48.944;9.418;2024-03-25T10:04:05;97854.71;;;9.57;34.75
59154;BME280;44935;48.944;9.418;2024-03-25T10:06:32;97850.01;;;10.07;36.37
59154;BME280;44935;48.944;9.418;2024-03-25T10:08:58;97845.37;;;9.86;34.95
59154;BME280;44935;48.944;9.418;2024-03-25T10:11:25;97842.52;;;10.12;33.71
59154;BME280;44935;48.944;9.418;2024-03-25T10:13:52;97841.10;;;9.61;36.41
59154;BME280;44935;48.944;9.418;2024-03-25T10:16:19;97839.00;;;11.38;35.11
59154;BME280;44935;48.944;9.418;2024-03-25T10:18:46;97835.96;;;11.11;34.06
59154;BME280;44935;48.944;9.418;2024-03-25T10:21:13;97830.78;;;10.15;34.98
59154;BME280;44935;48.944;9.418;2024-03-25T10:23:40;97831.70;;;10.69;36.76
59154;BME280;44935;48.944;9.418;2024-03-25T10:26:07;97822.68;;;9.93;35.69
59154;BME280;44935;48.944;9.418;2024-03-25T10:28:34;97817.36;;;10.60;35.03
59154;BME280;44935;48.944;9.418;2024-03-25T10:31:03;97808.82;;;10.39;37.54
59154;BME280;44935;48.944;9.418;2024-03-25T10:33:31;97798.67;;;10.10;36.13
59154;BME280;44935;48.944;9.418;2024-03-25T10:35:59;97789.05;;;11.29;35.23
59154;BME280;44935;48.944;9.418;2024-03-25T10:38:28;97781.72;;;11.78;33.47
59154;BME280;44935;48.944;9.418;2024-03-25T10:40:57;97782.90;;;10.91;35.13
59154;BME280;44935;48.944;9.418;2024-03-25T10:43:29;97788.23;;;10.24;34.70
59154;BME280;44935;48.944;9.418;2024-03-25T10:45:58;97784.35;;;10.47;35.54
59154;BME280;44935;48.944;9.418;2024-03-25T10:48:28;97777.02;;;11.11;34.93
59154;BME280;44935;48.944;9.418;2024-03-25T10:50:56;97771.70;;;11.36;32.22
59154;BME280;44935;48.944;9.418;2024-03-25T10:53:24;97770.07;;;11.24;33.89
59154;BME280;44935;48.944;9.418;2024-03-25T10:55:54;97768.18;;;11.56;33.85
59154;BME280;44935;48.944;9.418;2024-03-25T10:58:21;97771.54;;;11.76;34.00
59154;BME280;44935;48.944;9.418;2024-03-25T11:00:50;97770.44;;;11.50;33.10
59154;BME280;44935;48.944;9.418;2024-03-25T11:03:18;97769.74;;;12.29;32.18
59154;BME280;44935;48.944;9.418;2024-03-25T11:05:46;97767.18;;;12.09;31.92
59154;BME280;44935;48.944;9.418;2024-03-25T11:08:14;97763.40;;;11.88;31.64
59154;BME280;44935;48.944;9.418;2024-03-25T11:10:42;97767.46;;;11.82;33.26
59154;BME280;44935;48.944;9.418;2024-03-25T11:13:10;97764.25;;;11.42;32.49
59154;BME280;44935;48.944;9.418;2024-03-25T11:15:40;97760.72;;;11.70;31.68
59154;BME280;44935;48.944;9.418;2024-03-25T11:18:11;97757.61;;;10.98;34.45
59154;BME280;44935;48.944;9.418;2024-03-25T11:20:39;97756.96;;;11.31;33.57
59154;BME280;44935;48.944;9.418;2024-03-25T11:23:10;97752.65;;;11.21;34.39
59154;BME280;44935;48.944;9.418;2024-03-25T11:25:38;97752.10;;;11.11;33.68
59154;BME280;44935;48.944;9.418;2024-03-25T11:28:05;97752.64;;;9.90;34.14
59154;BME280;44935;48.944;9.418;2024-03-25T11:30:33;97741.11;;;10.92;33.28
59154;BME280;44935;48.944;9.418;2024-03-25T11:33:02;97733.27;;;11.28;33.62
59154;BME280;44935;48.944;9.418;2024-03-25T11:35:29;97730.51;;;11.52;30.33
59154;BME280;44935;48.944;9.418;2024-03-25T11:37:56;97725.34;;;11.52;28.88
59154;BME280;44935;48.944;9.418;2024-03-25T11:40:23;97723.94;;;11.69;29.31
59154;BME280;44935;48.944;9.418;2024-03-25T11:42:49;97715.79;;;10.92;30.91
59154;BME280;44935;48.944;9.418;2024-03-25T11:45:17;97708.84;;;12.43;28.38
59154;BME280;44935;48.944;9.418;2024-03-25T11:47:46;97708.08;;;12.37;28.58
59154;BME280;44935;48.944;9.418;2024-03-25T11:50:16;97702.86;;;12.96;28.51
59154;BME280;44935;48.944;9.418;2024-03-25T11:52:44;97703.34;;;12.30;28.20
59154;BME280;44935;48.944;9.418;2024-03-25T11:55:15;97695.14;;;10.20;30.03
59154;BME280;44935;48.944;9.418;2024-03-25T11:57:43;97693.17;;;12.88;29.63
59154;BME280;44935;48.944;9.418;2024-03-25T12:00:11;97687.89;;;11.90;27.91
59154;BME280;44935;48.944;9.418;2024-03-25T12:02:38;97683.12;;;12.22;28.52
59154;BME280;44935;48.944;9.418;2024-03-25T12:05:06;97671.28;;;11.80;30.62
59154;BME280;44935;48.944;9.418;2024-03-25T12:07:34;97667.72;;;10.81;31.14
59154;BME280;44935;48.944;9.418;2024-03-25T12:10:01;97666.73;;;10.50;30.98
59154;BME280;44935;48.944;9.418;2024-03-25T12:12:28;97657.85;;;11.52;29.50
59154;BME280;44935;48.944;9.418;2024-03-25T12:14:56;97652.75;;;10.47;31.77
59154;BME280;44935;48.944;9.418;2024-03-25T12:17:24;97647.10;;;10.36;30.41
59154;BME280;44935;48.944;9.418;2024-03-25T12:19:59;97640.43;;;11.29;29.40
59154;BME280;44935;48.944;9.418;2024-03-25T12:22:28;97636.25;;;12.52;28.67
59154;BME280;44935;48.944;9.418;2024-03-25T12:24:57;97630.97;;;12.67;28.78
59154;BME280;44935;48.944;9.418;2024-03-25T12:27:24;97622.24;;;12.61;30.67
59154;BME280;44935;48.944;9.418;2024-03-25T12:29:59;97619.42;;;11.59;29.71
59154;BME280;44935;48.944;9.418;2024-03-25T12:32:43;97617.34;;;11.68;30.28
59154;BME280;44935;48.944;9.418;2024-03-25T12:35:12;97619.46;;;10.34;31.23
59154;BME280;44935;48.944;9.418;2024-03-25T12:37:41;97613.43;;;12.35;29.94
59154;BME280;44935;48.944;9.418;2024-03-25T12:40:10;97606.08;;;10.74;31.17
59154;BME280;44935;48.944;9.418;2024-03-25T12:42:38;97600.30;;;11.31;31.61
59154;BME280;44935;48.944;9.418;2024-03-25T12:45:06;97592.30;;;12.12;30.94
59154;BME280;44935;48.944;9.418;2024-03-25T12:47:33;97585.25;;;12.68;30.30
59154;BME280;44935;48.944;9.418;2024-03-25T12:50:01;97588.08;;;12.77;29.90
59154;BME280;44935;48.944;9.418;2024-03-25T12:52:28;97580.42;;;11.02;30.61
59154;BME280;44935;48.944;9.418;2024-03-25T12:54:55;97576.53;;;9.09;33.05
59154;BME280;44935;48.944;9.418;2024-03-25T12:57:22;97567.63;;;10.20;32.47
59154;BME280;44935;48.944;9.418;2024-03-25T12:59:49;97564.74;;;9.88;32.66
59154;BME280;44935;48.944;9.418;2024-03-25T13:02:16;97557.09;;;9.65;34.63
59154;BME280;44935;48.944;9.418;2024-03-25T13:04:43;97557.84;;;11.14;32.39
59154;BME280;44935;48.944;9.418;2024-03-25T13:07:09;97552.26;;;11.81;30.16